createdAt,value
2023-01-10T00:00:59.043Z,78.11
2023-01-10T00:01:59.074Z,77.76
2023-01-10T00:02:59.052Z,77.6
2023-01-10T00:03:59.045Z,77.6
2023-01-10T00:04:59.008Z,77.94
2023-01-10T00:05:59.004Z,78.45
2023-01-10T00:06:58.982Z,78.66
2023-01-10T00:07:58.971Z,78.76
2023-01-10T00:08:58.957Z,78.56
2023-01-10T00:09:58.956Z,78.56
2023-01-10T00:10:58.942Z,78.45
2023-01-10T00:11:58.929Z,78.45
2023-01-10T00:12:58.992Z,78.45
2023-01-10T00:13:58.911Z,78.8
2023-01-10T00:14:58.915Z,78.86
2023-01-10T00:15:58.892Z,78.76
2023-01-10T00:16:58.904Z,78.59
2023-01-10T00:17:58.864Z,78.9
2023-01-10T00:18:58.859Z,78.76
2023-01-10T00:19:58.875Z,78.45
2023-01-10T00:20:58.843Z,78.7
2023-01-10T00:21:58.833Z,78.76
2023-01-10T00:22:58.835Z,79
2023-01-10T00:23:58.807Z,79
2023-01-10T00:24:58.803Z,78.97
2023-01-10T00:25:58.838Z,78.86
2023-01-10T00:26:58.781Z,78.76
2023-01-10T00:27:58.776Z,78.56
2023-01-10T00:28:58.751Z,78.76
2023-01-10T00:29:58.750Z,78.35
2023-01-10T00:30:58.798Z,78.56
2023-01-10T00:31:58.760Z,78.56
2023-01-10T00:32:58.713Z,78.35
2023-01-10T00:33:58.703Z,78.56
2023-01-10T00:34:58.691Z,78.56
2023-01-10T00:35:58.700Z,78.56
2023-01-10T00:36:58.678Z,78.15
2023-01-10T00:37:58.668Z,77.94
2023-01-10T00:38:58.649Z,78.28
2023-01-10T00:39:58.648Z,78.56
2023-01-10T00:40:58.624Z,78.45
2023-01-10T00:41:58.642Z,78.56
2023-01-10T00:42:58.613Z,78.45
2023-01-10T00:43:58.620Z,78.25
2023-01-10T00:44:58.604Z,78.49
2023-01-10T00:45:58.633Z,78.59
2023-01-10T00:46:58.574Z,78.76
2023-01-10T00:47:58.572Z,78.59
2023-01-10T00:48:58.548Z,78.8
2023-01-10T00:49:58.539Z,78.8
2023-01-10T00:50:58.538Z,78.7
2023-01-10T00:51:58.519Z,78.8
2023-01-10T00:52:58.502Z,78.7
2023-01-10T00:53:58.507Z,78.9
2023-01-10T00:54:58.494Z,78.59
2023-01-10T00:55:58.508Z,79
2023-01-10T00:56:58.476Z,79.21
2023-01-10T00:57:58.488Z,79.11
2023-01-10T00:58:58.442Z,79.07
2023-01-10T00:59:58.441Z,78.86
2023-01-10T01:00:58.423Z,78.8
2023-01-10T01:01:58.419Z,79.07
2023-01-10T01:02:58.399Z,78.66
2023-01-10T01:03:58.390Z,78.9
2023-01-10T01:04:58.418Z,78.9
2023-01-10T01:05:58.369Z,79
2023-01-10T01:06:58.372Z,79.35
2023-01-10T01:07:58.370Z,79.24
2023-01-10T01:08:58.334Z,79.45
2023-01-10T01:09:58.332Z,79.14
2023-01-10T01:10:58.338Z,79.24
2023-01-10T01:11:58.316Z,79.04
2023-01-10T01:12:58.313Z,79.14
2023-01-10T01:13:58.299Z,79.04
2023-01-10T01:14:58.273Z,79.38
2023-01-10T01:15:58.266Z,79.35
2023-01-10T01:16:58.255Z,79.35
2023-01-10T01:17:58.241Z,79.28
2023-01-10T01:18:58.240Z,79.49
2023-01-10T01:19:58.247Z,79.45
2023-01-10T01:20:58.276Z,79.28
2023-01-10T01:21:58.202Z,79.69
2023-01-10T01:22:58.188Z,79.55
2023-01-10T01:23:58.178Z,79.38
2023-01-10T01:24:58.176Z,79.28
2023-01-10T01:25:58.157Z,79.49
2023-01-10T01:26:58.155Z,79.28
2023-01-10T01:27:58.146Z,79.24
2023-01-10T01:28:58.132Z,79.04
2023-01-10T01:29:58.118Z,78.83
2023-01-10T01:30:58.111Z,78.94
2023-01-10T01:31:58.099Z,78.49
2023-01-10T01:32:58.085Z,78.19
2023-01-10T01:33:58.107Z,78.42
2023-01-10T01:34:58.066Z,78.49
2023-01-10T01:35:58.053Z,78.19
2023-01-10T01:36:58.045Z,78.19
2023-01-10T01:37:58.037Z,78.53
2023-01-10T01:38:58.039Z,78.94
2023-01-10T01:39:58.014Z,78.63
2023-01-10T01:40:58.046Z,78.74
2023-01-10T01:41:58.008Z,78.94
2023-01-10T01:42:57.996Z,78.94
2023-01-10T01:43:58.002Z,78.83
2023-01-10T01:44:57.960Z,79.04
2023-01-10T01:45:57.955Z,79.14
2023-01-10T01:46:57.950Z,79.45
2023-01-10T01:47:57.930Z,79.45
2023-01-10T01:48:57.928Z,79.35
2023-01-10T01:49:57.931Z,79
2023-01-10T01:50:57.901Z,78.49
2023-01-10T01:51:57.891Z,78.7
2023-01-10T01:52:57.876Z,78.7
2023-01-10T01:53:57.871Z,78.7
2023-01-10T01:54:57.864Z,78.8
2023-01-10T01:55:57.851Z,78.9
2023-01-10T01:56:57.858Z,79.04
2023-01-10T01:57:57.830Z,79.45
2023-01-10T01:58:57.821Z,79.45
2023-01-10T01:59:57.809Z,79.55
2023-01-10T02:00:57.801Z,80.07
2023-01-10T02:01:57.793Z,79.82
2023-01-10T02:02:57.782Z,79.41
2023-01-10T02:03:57.782Z,79.41
2023-01-10T02:04:57.762Z,79.52
2023-01-10T02:05:57.754Z,79.35
2023-01-10T02:06:57.733Z,79.75
2023-01-10T02:07:57.726Z,79.96
2023-01-10T02:08:57.728Z,80.07
2023-01-10T02:09:57.720Z,80.07
2023-01-10T02:10:57.703Z,80.17
2023-01-10T02:11:57.737Z,80.17
2023-01-10T02:12:57.683Z,80.27
2023-01-10T02:13:57.658Z,80.13
2023-01-10T02:14:57.664Z,79.96
2023-01-10T02:15:57.669Z,80.17
2023-01-10T02:16:57.645Z,80.27
2023-01-10T02:17:57.621Z,79.93
2023-01-10T02:18:57.623Z,79.21
2023-01-10T02:19:57.597Z,79.41
2023-01-10T02:20:57.595Z,79.17
2023-01-10T02:21:57.577Z,79.11
2023-01-10T02:22:57.569Z,79.31
2023-01-10T02:23:57.568Z,79.72
2023-01-10T02:24:57.548Z,79.75
2023-01-10T02:25:57.538Z,80.23
2023-01-10T02:26:57.556Z,80.33
2023-01-10T02:27:57.517Z,80.27
2023-01-10T02:28:57.507Z,80.47
2023-01-10T02:29:57.496Z,80.68
2023-01-10T02:30:57.485Z,80.17
2023-01-10T02:31:57.490Z,80.21
2023-01-10T02:32:57.474Z,80.31
2023-01-10T02:33:57.455Z,80.62
2023-01-10T02:34:57.453Z,80.37
2023-01-10T02:35:57.437Z,80.41
2023-01-10T02:36:57.424Z,80.72
2023-01-10T02:37:57.477Z,80.82
2023-01-10T02:38:57.411Z,80.99
2023-01-10T02:39:57.392Z,81.09
2023-01-10T02:40:57.396Z,80.78
2023-01-10T02:41:57.380Z,80.74
2023-01-10T02:42:57.360Z,80.58
2023-01-10T02:43:57.352Z,80.88
2023-01-10T02:44:57.361Z,81.09
2023-01-10T02:45:57.329Z,81.09
2023-01-10T02:46:57.322Z,81.34
2023-01-10T02:47:57.339Z,81.74
2023-01-10T02:48:57.309Z,81.74
2023-01-10T02:49:57.292Z,81.71
2023-01-10T02:50:57.288Z,81.4
2023-01-10T02:51:57.269Z,80.85
2023-01-10T02:52:57.261Z,80.58
2023-01-10T02:53:57.267Z,80.58
2023-01-10T02:54:57.249Z,80.88
2023-01-10T02:55:57.234Z,81.02
2023-01-10T02:56:57.212Z,80.99
2023-01-10T02:57:57.210Z,80.68
2023-01-10T02:58:57.205Z,80.44
2023-01-10T02:59:57.204Z,80.23
2023-01-10T03:00:57.174Z,80.13
2023-01-10T03:01:57.164Z,80.27
2023-01-10T03:02:57.161Z,79.82
2023-01-10T03:03:57.156Z,79.96
2023-01-10T03:04:57.126Z,79.93
2023-01-10T03:05:57.125Z,79.72
2023-01-10T03:06:57.110Z,79.96
2023-01-10T03:07:57.104Z,79.72
2023-01-10T03:08:57.130Z,79.62
2023-01-10T03:09:57.092Z,79.27
2023-01-10T03:10:57.074Z,79.27
2023-01-10T03:11:57.065Z,79.21
2023-01-10T03:12:57.057Z,79.31
2023-01-10T03:13:57.039Z,79.52
2023-01-10T03:14:57.033Z,79.72
2023-01-10T03:15:57.014Z,79.62
2023-01-10T03:16:57.009Z,79.41
2023-01-10T03:17:56.999Z,79.31
2023-01-10T03:18:56.990Z,79.52
2023-01-10T03:19:56.971Z,78.97
2023-01-10T03:20:57.004Z,78.86
2023-01-10T03:21:56.950Z,78.8
2023-01-10T03:22:56.939Z,79.21
2023-01-10T03:23:56.933Z,78.97
2023-01-10T03:24:56.925Z,78.76
2023-01-10T03:25:56.913Z,78.45
2023-01-10T03:26:56.912Z,78.28
2023-01-10T03:27:56.899Z,78.35
2023-01-10T03:28:56.884Z,78.39
2023-01-10T03:29:56.890Z,78.7
2023-01-10T03:30:56.863Z,78.8
2023-01-10T03:31:56.846Z,78.59
2023-01-10T03:32:56.838Z,78.9
2023-01-10T03:33:56.836Z,78.49
2023-01-10T03:34:56.820Z,78.39
2023-01-10T03:35:56.820Z,78.45
2023-01-10T03:36:56.793Z,78.25
2023-01-10T03:37:56.809Z,77.64
2023-01-10T03:38:56.775Z,78.19
2023-01-10T03:39:56.765Z,78.05
2023-01-10T03:40:56.753Z,77.84
2023-01-10T03:41:56.750Z,77.64
2023-01-10T03:42:56.752Z,77.64
2023-01-10T03:43:56.729Z,77.43
2023-01-10T03:44:56.724Z,77.53
2023-01-10T03:45:56.734Z,77.33
2023-01-10T03:46:56.697Z,77.53
2023-01-10T03:47:56.693Z,77.64
2023-01-10T03:48:56.679Z,77.64
2023-01-10T03:49:56.660Z,77.43
2023-01-10T03:50:56.653Z,77.43
2023-01-10T03:51:56.645Z,77.33
2023-01-10T03:52:56.634Z,77.12
2023-01-10T03:53:56.624Z,77.12
2023-01-10T03:54:56.617Z,77.02
2023-01-10T03:55:56.667Z,77.12
2023-01-10T03:56:56.645Z,76.98
2023-01-10T03:57:56.602Z,76.27
2023-01-10T03:58:56.606Z,76.31
2023-01-10T03:59:56.559Z,76.72
2023-01-10T04:00:56.549Z,76.92
2023-01-10T04:01:56.563Z,76.85
2023-01-10T04:02:56.626Z,77.06
2023-01-10T04:43:11.432Z,77.61
2023-01-10T04:44:11.411Z,76.99
2023-01-10T04:45:11.434Z,77.06
2023-01-10T04:46:11.411Z,76.65
2023-01-10T04:47:11.264Z,76.54
2023-01-10T04:48:11.468Z,76.24
2023-01-10T04:49:11.220Z,76.03
2023-01-10T04:50:11.186Z,76.58
2023-01-10T04:51:11.204Z,76.89
2023-01-10T04:52:11.167Z,77.13
2023-01-10T04:53:11.167Z,77.74
2023-01-10T04:54:11.172Z,77.84
2023-01-10T04:55:11.194Z,78.19
2023-01-10T04:56:11.133Z,78.29
2023-01-10T04:57:11.112Z,77.98
2023-01-10T04:58:11.097Z,78.29
2023-01-10T04:59:11.108Z,77.88
2023-01-10T05:00:11.075Z,78.29
2023-01-10T05:01:11.070Z,77.88
2023-01-10T05:02:11.090Z,77.58
2023-01-10T05:03:11.051Z,77.54
2023-01-10T05:04:11.033Z,77.23
2023-01-10T05:05:11.031Z,77.13
2023-01-10T05:06:11.011Z,76.82
2023-01-10T05:07:11.005Z,76.72
2023-01-10T05:08:11.031Z,76.07
2023-01-10T05:09:10.978Z,76.1
2023-01-10T05:10:10.976Z,75.86
2023-01-10T05:11:10.966Z,75.66
2023-01-10T05:12:10.949Z,75.66
2023-01-10T05:13:10.941Z,75.24
2023-01-10T05:14:10.959Z,75.45
2023-01-10T05:15:10.924Z,75.45
2023-01-10T05:16:10.934Z,76
2023-01-10T05:17:10.899Z,76.1
2023-01-10T05:18:10.891Z,76.41
2023-01-10T05:19:10.900Z,76.07
2023-01-10T05:20:10.871Z,76.1
2023-01-10T05:21:10.870Z,76.17
2023-01-10T05:22:10.853Z,75.79
2023-01-10T05:23:10.851Z,76.31
2023-01-10T05:24:10.828Z,75.86
2023-01-10T05:25:10.818Z,76.27
2023-01-10T05:26:10.818Z,75.86
2023-01-10T05:27:10.810Z,75.86
2023-01-10T05:28:10.791Z,76.07
2023-01-10T05:29:10.776Z,75.86
2023-01-10T05:30:10.784Z,76.27
2023-01-10T05:31:10.754Z,76.17
2023-01-10T05:32:10.758Z,76.14
2023-01-10T05:33:10.743Z,75.82
2023-01-10T05:34:10.747Z,76.03
2023-01-10T05:35:10.716Z,75.93
2023-01-10T05:36:10.708Z,76.03
2023-01-10T05:37:10.692Z,75.93
2023-01-10T05:38:10.719Z,76.24
2023-01-10T05:56:47.616Z,76.03
2023-01-10T05:57:47.521Z,76.24
2023-01-10T05:58:47.476Z,77.06
2023-01-10T05:59:48.481Z,77.47
2023-01-10T06:00:47.365Z,77.71
2023-01-10T06:01:47.328Z,77.57
2023-01-10T07:12:16.279Z,76.34
2023-01-10T07:13:16.305Z,76.68
2023-01-10T07:14:16.304Z,77.4
2023-01-10T07:15:16.310Z,77.67
2023-01-10T07:16:16.238Z,76.95
2023-01-10T07:17:16.315Z,77.73
2023-01-10T07:18:16.136Z,76.54
2023-01-10T07:19:16.109Z,76.24
2023-01-10T07:20:16.114Z,77.4
2023-01-10T07:21:16.100Z,77.64
2023-01-10T07:22:16.090Z,77.09
2023-01-10T07:23:16.079Z,77.5
2023-01-10T07:24:16.053Z,77.61
2023-01-10T07:25:16.049Z,77.13
2023-01-10T07:26:16.055Z,77.44
2023-01-10T07:27:16.034Z,77.4
2023-01-10T07:28:16.038Z,0
2023-01-10T07:29:16.007Z,77.09
2023-01-10T07:30:15.993Z,77.09
2023-01-10T07:31:16.000Z,77.2
2023-01-10T07:32:15.974Z,77.2
2023-01-10T07:33:16.002Z,77.29
2023-01-10T07:34:15.961Z,77.29
2023-01-10T07:35:15.949Z,77.84
2023-01-10T08:09:54.502Z,75.99
2023-01-10T08:10:54.332Z,75.82
2023-01-10T08:11:54.373Z,75.99
2023-01-10T08:12:54.380Z,75.73
2023-01-10T08:13:54.392Z,76.65
2023-01-10T08:14:54.286Z,75.73
2023-01-10T08:15:54.264Z,75.96
2023-01-10T08:16:54.261Z,77.4
2023-01-10T08:17:54.224Z,77.47
2023-01-10T08:18:54.240Z,76.03
2023-01-10T08:19:54.429Z,76.44
2023-01-10T08:20:54.204Z,76.34
2023-01-10T08:21:54.204Z,76.34
2023-01-10T08:22:54.190Z,76.34
2023-01-10T08:23:54.191Z,76.34
2023-01-10T08:24:54.162Z,75.99
2023-01-10T08:25:54.189Z,75.79
2023-01-10T08:26:54.155Z,75.93
2023-01-10T08:27:54.142Z,75.79
2023-01-10T08:28:54.108Z,75.79
2023-01-10T08:29:54.098Z,75.48
2023-01-10T08:30:54.194Z,75.79
2023-01-10T08:31:54.081Z,75.69
2023-01-10T08:32:54.077Z,75.18
2023-01-10T08:33:54.061Z,75.28
2023-01-10T08:34:54.046Z,75.28
2023-01-10T08:35:54.085Z,75.04
2023-01-10T08:36:54.027Z,75.04
2023-01-10T08:37:54.026Z,74.97
2023-01-10T08:38:54.019Z,75.38
2023-01-10T08:39:54.050Z,75.69
2023-01-10T08:40:54.021Z,75.82
2023-01-10T08:41:53.984Z,76.95
2023-01-10T08:42:54.010Z,76.4
2023-01-10T08:43:53.954Z,75.69
2023-01-10T08:44:53.957Z,75.38
2023-01-10T08:45:53.976Z,75.38
2023-01-10T08:46:53.934Z,75.62
2023-01-10T08:47:53.927Z,75.73
2023-01-10T08:48:54.151Z,76.17
2023-01-10T08:49:54.029Z,76.89
2023-01-10T08:50:53.912Z,76.78
2023-01-10T08:51:53.885Z,76.65
2023-01-10T08:52:53.867Z,77.33
2023-01-10T08:53:53.939Z,77.47
2023-01-10T08:54:53.842Z,76.75
2023-01-10T08:55:53.833Z,76.54
2023-01-10T08:56:53.823Z,76.61
2023-01-10T08:57:53.818Z,75.99
2023-01-10T08:58:53.879Z,75.89
2023-01-10T08:59:53.790Z,76.24
2023-01-10T09:00:53.800Z,76.58
2023-01-10T09:01:53.810Z,76.68
2023-01-10T09:02:53.762Z,76.68
2023-01-10T09:03:53.749Z,77.06
2023-01-10T09:04:53.733Z,76.65
2023-01-10T09:05:53.724Z,76.75
2023-01-10T09:06:53.741Z,76.95
2023-01-10T09:07:53.703Z,77.26
2023-01-10T09:08:53.698Z,76.54
2023-01-10T09:09:53.685Z,76.99
2023-01-10T09:10:53.670Z,77.71
2023-01-10T09:11:53.661Z,77.81
2023-01-10T09:12:53.656Z,77.71
2023-01-10T09:13:53.654Z,77.47
2023-01-10T09:14:53.631Z,77.09
2023-01-10T09:15:53.618Z,77.64
2023-01-10T09:16:53.623Z,77.81
2023-01-10T09:17:53.603Z,77.29
2023-01-10T09:18:53.595Z,77.61
2023-01-10T09:19:53.605Z,77.47
2023-01-10T09:20:53.579Z,77.2
2023-01-10T09:21:53.558Z,77.2
2023-01-10T09:22:53.547Z,77.61
2023-01-10T09:23:53.549Z,77.91
2023-01-10T09:24:53.532Z,77.87
2023-01-10T09:25:53.526Z,77.47
2023-01-10T09:26:53.534Z,77.57
2023-01-10T09:27:53.505Z,77.12
2023-01-10T09:28:53.484Z,77.06
2023-01-10T09:29:53.474Z,76.95
2023-01-10T09:30:53.462Z,76.95
2023-01-10T09:31:53.450Z,77.29
2023-01-10T09:32:53.445Z,77.77
2023-01-10T09:33:53.435Z,77.02
2023-01-10T09:34:53.423Z,76.81
2023-01-10T09:35:53.438Z,76.72
2023-01-10T09:36:53.402Z,76.68
2023-01-10T09:37:53.387Z,76.27
2023-01-10T09:38:53.383Z,75.86
2023-01-10T09:39:53.373Z,75.14
2023-01-10T09:40:53.363Z,75.48
2023-01-10T09:41:53.356Z,76.03
2023-01-10T09:42:53.346Z,77.02
2023-01-10T09:43:53.335Z,76.2
2023-01-10T09:44:53.318Z,76.2
2023-01-10T09:45:53.307Z,75.69
2023-01-10T09:46:53.297Z,76.81
2023-01-10T09:47:53.285Z,76.17
2023-01-10T09:48:53.299Z,75.65
2023-01-10T09:49:53.375Z,75.24
2023-01-10T09:50:53.277Z,75.65
2023-01-10T09:51:53.243Z,75.24
2023-01-10T09:52:53.239Z,75.24
2023-01-10T09:53:53.225Z,75.31
2023-01-10T09:54:53.211Z,75.21
2023-01-10T09:55:53.231Z,74.39
2023-01-10T09:56:53.198Z,74.49
2023-01-10T09:57:53.183Z,75.42
2023-01-10T09:58:53.171Z,74.39
2023-01-10T09:59:53.171Z,74.43
2023-01-10T10:00:53.158Z,74.94
2023-01-10T10:01:53.146Z,74.69
2023-01-10T10:11:45.703Z,72.89
2023-01-10T10:12:45.697Z,73.03
2023-01-10T10:13:45.688Z,72.41
2023-01-10T10:14:45.655Z,73.33
2023-01-10T10:15:45.667Z,73.36
2023-01-10T10:16:45.626Z,74.43
2023-01-10T10:17:45.627Z,74.9
2023-01-10T10:18:45.623Z,73.68
2023-01-10T10:19:45.595Z,74.35
2023-01-10T10:20:45.577Z,74.29
2023-01-10T10:21:45.575Z,74.36
2023-01-10T10:22:45.586Z,75.07
2023-01-10T10:23:45.568Z,74.22
2023-01-10T10:24:45.610Z,74.22
2023-01-10T10:25:45.576Z,74.94
2023-01-10T10:26:45.589Z,75.65
2023-01-10T10:27:45.639Z,74.73
2023-01-10T10:28:46.502Z,74.29
2023-01-10T10:29:45.472Z,74.63
2023-01-10T10:30:45.499Z,74.43
2023-01-10T10:31:45.462Z,74.29
2023-01-10T10:32:45.453Z,73.85
2023-01-10T10:33:45.438Z,73.3
2023-01-10T10:34:45.427Z,72.72
2023-01-10T10:35:45.455Z,72.72
2023-01-10T10:36:45.442Z,73.88
2023-01-10T10:37:45.394Z,73.98
2023-01-10T10:38:45.387Z,73.98
2023-01-10T10:39:45.373Z,73.68
2023-01-10T10:40:45.364Z,73.47
2023-01-10T10:41:45.423Z,73.88
2023-01-10T10:42:46.354Z,73.85
2023-01-10T10:43:45.338Z,73.33
2023-01-10T10:44:45.318Z,73.36
2023-01-10T10:45:45.316Z,73.33
2023-01-10T10:46:45.332Z,73.16
2023-01-10T10:47:45.294Z,73.78
2023-01-10T10:48:45.279Z,73.44
2023-01-10T10:49:45.271Z,72.92
2023-01-10T10:57:31.538Z,73.23
2023-01-10T10:58:31.371Z,72.72
2023-01-10T10:59:31.564Z,73.27
2023-01-10T11:00:31.406Z,72.82
2023-01-10T11:01:31.308Z,72.72
2023-01-10T11:02:31.266Z,72.79
2023-01-10T11:03:31.244Z,72.48
2023-01-10T11:04:31.243Z,72.28
2023-01-10T11:05:31.228Z,72.38
2023-01-10T11:06:31.215Z,72.41
2023-01-10T11:07:31.210Z,72.28
2023-01-10T11:08:31.211Z,72.17
2023-01-10T11:09:31.174Z,71.56
2023-01-10T11:10:31.196Z,71.8
2023-01-10T11:11:31.167Z,72.21
2023-01-10T11:12:39.810Z,72.11
2023-01-10T11:13:31.135Z,72.52
2023-01-10T11:14:31.127Z,72.62
2023-01-10T11:15:31.119Z,73.06
2023-01-10T11:16:31.114Z,73.36
2023-01-10T11:17:31.099Z,72.89
2023-01-10T11:18:31.086Z,73.74
2023-01-10T11:19:31.069Z,74.11
2023-01-10T11:20:31.081Z,73.88
2023-01-10T11:21:31.074Z,73.57
2023-01-10T11:22:31.040Z,73.36
2023-01-10T11:23:31.029Z,73.36
2023-01-10T11:24:31.025Z,72.82
2023-01-10T11:25:31.008Z,72.41
2023-01-10T11:26:31.000Z,73.06
2023-01-10T11:27:30.989Z,72.92
2023-01-10T11:28:30.986Z,72.72
2023-01-10T11:29:30.976Z,72.96
2023-01-10T11:30:30.954Z,72.52
2023-01-10T11:31:30.952Z,72.21
2023-01-10T11:32:30.985Z,72.55
2023-01-10T11:33:30.922Z,72.52
2023-01-10T11:34:30.913Z,72.62
2023-01-10T11:35:30.922Z,72.31
2023-01-10T11:36:30.894Z,72.45
2023-01-10T11:37:30.894Z,72.52
2023-01-10T11:38:30.891Z,72.31
2023-01-10T11:39:30.875Z,72.11
2023-01-10T11:40:30.849Z,72.41
2023-01-10T11:41:30.854Z,72.62
2023-01-10T11:42:30.829Z,71.87
2023-01-10T11:43:30.821Z,71.97
2023-01-10T11:44:30.822Z,71.46
2023-01-10T11:45:30.802Z,71.53
2023-01-10T11:46:30.787Z,71.63
2023-01-10T11:47:30.779Z,71.63
2023-01-10T11:48:30.768Z,71.01
2023-01-10T11:49:30.770Z,71.12
2023-01-10T11:50:30.753Z,70.2
2023-01-10T11:51:30.738Z,71.19
2023-01-10T11:52:30.737Z,72.41
2023-01-10T11:53:30.710Z,71.66
2023-01-10T11:54:30.711Z,71.36
2023-01-10T11:55:30.691Z,70.71
2023-01-10T11:56:30.679Z,70.4
2023-01-10T11:57:30.671Z,70.3
2023-01-10T11:58:30.666Z,70.34
2023-01-10T11:59:30.650Z,70.75
2023-01-10T12:00:30.641Z,71.05
2023-01-10T12:01:30.661Z,71.25
2023-01-10T12:02:30.617Z,70.92
2023-01-10T12:03:30.608Z,71.12
2023-01-10T12:04:30.605Z,70.47
2023-01-10T12:05:30.595Z,69.96
2023-01-10T12:06:30.593Z,70.14
2023-01-10T12:07:30.565Z,69.21
2023-01-10T12:08:30.555Z,68.94
2023-01-10T12:09:30.556Z,69.15
2023-01-10T12:10:30.535Z,69.15
2023-01-10T12:11:30.523Z,69.56
2023-01-10T12:12:30.532Z,69.21
2023-01-10T12:13:30.502Z,68.57
2023-01-10T12:14:30.489Z,68.4
2023-01-10T12:15:30.479Z,69.56
2023-01-10T12:16:30.472Z,69.32
2023-01-10T12:17:30.462Z,69.35
2023-01-10T12:18:30.460Z,68.5
2023-01-10T12:19:30.443Z,68.54
2023-01-10T12:20:30.436Z,66.64
2023-01-10T12:21:30.439Z,65.49
2023-01-10T12:22:30.412Z,64.44
2023-01-10T12:23:30.401Z,65.65
2023-01-10T12:24:30.402Z,67.21
2023-01-10T12:25:30.371Z,66.6
2023-01-10T12:26:30.373Z,65.58
2023-01-10T12:27:30.352Z,67.04
2023-01-10T12:28:30.349Z,67.18
2023-01-10T12:29:30.337Z,68.36
2023-01-10T12:30:30.353Z,69.59
2023-01-10T12:31:30.312Z,69.31
2023-01-10T12:32:30.304Z,69.82
2023-01-10T12:33:30.289Z,69.62
2023-01-10T12:34:30.284Z,69.52
2023-01-10T12:35:30.268Z,68.74
2023-01-10T12:36:30.257Z,67.89
2023-01-10T12:37:30.247Z,67.79
2023-01-10T12:38:30.238Z,67.89
2023-01-10T12:39:30.251Z,67.38
2023-01-10T12:40:30.215Z,67.3
2023-01-10T12:41:30.207Z,67.51
2023-01-10T12:42:30.195Z,67.21
2023-01-10T12:43:30.190Z,67.41
2023-01-10T12:44:30.200Z,67.3
2023-01-10T12:45:30.186Z,68.19
2023-01-10T12:46:30.166Z,68.8
2023-01-10T12:47:30.135Z,68.7
2023-01-10T12:48:30.128Z,69.21
2023-01-10T12:49:30.177Z,68.57
2023-01-10T12:50:30.103Z,68.6
2023-01-10T12:51:30.106Z,69.11
2023-01-10T12:52:30.092Z,69.07
2023-01-10T12:53:30.079Z,68.87
2023-01-10T12:54:30.063Z,68.26
2023-01-10T12:55:30.054Z,69.62
2023-01-10T12:56:30.046Z,69.52
2023-01-10T12:57:30.034Z,68.9
2023-01-10T12:58:30.020Z,69.28
2023-01-10T12:59:30.010Z,68.87
2023-01-10T13:00:29.998Z,68.66
2023-01-10T13:01:29.994Z,68.77
2023-01-10T13:02:29.996Z,68.87
2023-01-10T13:03:29.986Z,68.97
2023-01-10T13:04:29.968Z,68.43
2023-01-10T13:05:29.948Z,68.36
2023-01-10T13:06:29.951Z,68.26
2023-01-10T13:07:29.957Z,68.77
2023-01-10T13:08:29.953Z,68.46
2023-01-10T13:09:29.910Z,68.8
2023-01-10T13:10:29.900Z,68.9
2023-01-10T13:11:29.891Z,69.21
2023-01-10T13:12:29.873Z,69.01
2023-01-10T13:13:29.876Z,68.57
2023-01-10T13:14:29.853Z,68.12
2023-01-10T13:15:29.863Z,67.92
2023-01-10T13:16:29.847Z,67.99
2023-01-10T13:17:29.826Z,67.82
2023-01-10T13:18:29.813Z,68.57
2023-01-10T13:19:29.812Z,69.18
2023-01-10T13:20:29.822Z,68.94
2023-01-10T13:21:29.783Z,68.33
2023-01-10T13:22:29.779Z,68.12
2023-01-10T13:23:29.767Z,67.92
2023-01-10T13:24:29.764Z,68.02
2023-01-10T13:25:29.741Z,0
2023-01-10T13:26:29.729Z,0
2023-01-10T13:27:29.728Z,0
2023-01-10T13:28:29.710Z,69.31
2023-01-10T13:29:29.711Z,70.16
2023-01-10T13:30:29.687Z,70.54
2023-01-10T13:31:29.679Z,70.23
2023-01-10T13:32:29.694Z,69.59
2023-01-10T13:33:29.661Z,69.52
2023-01-10T13:34:29.695Z,69.96
2023-01-10T13:35:29.634Z,69.52
2023-01-10T13:36:29.622Z,70.13
2023-01-10T13:37:29.639Z,69.07
2023-01-10T13:38:29.613Z,68.8
2023-01-10T13:39:29.595Z,69.34
2023-01-10T13:40:29.589Z,69.96
2023-01-10T13:41:29.568Z,69.65
2023-01-10T13:42:29.559Z,69.62
2023-01-10T13:43:29.567Z,69.01
2023-01-10T13:44:29.546Z,69.31
2023-01-10T13:45:29.529Z,69.04
2023-01-10T13:46:29.553Z,69.89
2023-01-10T13:47:29.550Z,70.29
2023-01-10T13:48:29.505Z,70.2
2023-01-10T13:49:29.542Z,69.99
2023-01-10T13:50:29.508Z,70.06
2023-01-10T13:51:29.471Z,69.01
2023-01-10T13:52:29.455Z,68.39
2023-01-10T13:53:29.451Z,68.8
2023-01-10T13:54:29.457Z,68.26
2023-01-10T13:55:29.430Z,68.08
2023-01-10T13:56:29.420Z,68.73
2023-01-10T13:57:29.404Z,68.93
2023-01-10T13:58:29.404Z,68.29
2023-01-10T13:59:29.381Z,68.12
2023-01-10T14:00:29.370Z,69.45
2023-01-10T14:01:29.362Z,68.73
2023-01-10T14:02:29.348Z,68.84
2023-01-10T14:03:29.338Z,69.48
2023-01-10T14:04:29.359Z,68.93
2023-01-10T14:05:29.323Z,68.29
2023-01-10T14:06:29.312Z,68.84
2023-01-10T14:07:29.291Z,68.63
2023-01-10T14:08:29.289Z,68.63
2023-01-10T14:09:29.284Z,68.63
2023-01-10T14:10:29.274Z,68.42
2023-01-10T14:11:29.263Z,68.32
2023-01-10T14:12:29.248Z,68.38
2023-01-10T14:13:29.244Z,68.9
2023-01-10T14:14:29.226Z,68.97
2023-01-10T14:15:29.211Z,68.52
2023-01-10T14:16:29.202Z,67.81
2023-01-10T14:17:29.232Z,67.47
2023-01-10T14:18:29.191Z,67.88
2023-01-10T14:19:29.168Z,66.83
2023-01-10T14:20:29.162Z,66.69
2023-01-10T14:21:29.146Z,66.05
2023-01-10T14:22:29.138Z,65.34
2023-01-10T14:23:29.126Z,65.77
2023-01-10T14:24:29.120Z,66.93
2023-01-10T14:25:29.104Z,66.72
2023-01-10T14:26:29.096Z,67.57
2023-01-10T14:27:29.090Z,66.72
2023-01-10T14:28:29.071Z,66.62
2023-01-10T14:29:29.065Z,67.1
2023-01-10T14:30:29.091Z,68.05
2023-01-10T14:31:29.036Z,68.05
2023-01-10T14:32:29.026Z,68.46
2023-01-10T14:33:29.023Z,67.91
2023-01-10T14:34:29.013Z,67.71
2023-01-10T14:35:29.000Z,67.71
2023-01-10T14:36:28.999Z,67.94
2023-01-10T14:37:28.979Z,68.35
2023-01-10T14:38:28.962Z,68.25
2023-01-10T14:39:28.956Z,68.25
2023-01-10T14:40:28.947Z,67.81
2023-01-10T14:41:28.937Z,66.86
2023-01-10T14:42:28.928Z,67.43
2023-01-10T14:43:28.917Z,67.94
2023-01-10T14:44:28.906Z,68.01
2023-01-10T14:45:28.890Z,67.4
2023-01-10T14:46:28.888Z,67.1
2023-01-10T14:47:28.872Z,67.54
2023-01-10T14:48:28.860Z,67.71
2023-01-10T14:49:28.855Z,67.84
2023-01-10T14:50:28.864Z,67.94
2023-01-10T14:51:28.860Z,68.05
2023-01-10T14:52:28.822Z,67.64
2023-01-10T14:53:28.835Z,68.28
2023-01-10T14:54:28.803Z,68.79
2023-01-10T14:55:28.791Z,68.32
2023-01-10T14:56:28.782Z,68.93
2023-01-10T14:57:28.768Z,68.59
2023-01-10T14:58:28.779Z,68.28
2023-01-10T14:59:28.766Z,68.05
2023-01-10T15:00:28.740Z,68.15
2023-01-10T15:01:28.726Z,67.64
2023-01-10T15:02:28.714Z,68.08
2023-01-10T15:03:28.700Z,68.38
2023-01-10T15:04:28.719Z,68.28
2023-01-10T15:05:28.679Z,68.21
2023-01-10T15:06:28.671Z,68.28
2023-01-10T15:07:28.660Z,68.18
2023-01-10T15:08:28.763Z,68.18
2023-01-10T15:09:28.644Z,68.18
2023-01-10T15:10:28.628Z,68.28
2023-01-10T15:11:28.622Z,68.08
2023-01-10T15:12:28.615Z,68.41
2023-01-10T15:13:28.597Z,68.28
2023-01-10T15:14:28.589Z,68.18
2023-01-10T15:15:28.592Z,68.28
2023-01-10T15:16:28.567Z,67.64
2023-01-10T15:17:28.577Z,67.3
2023-01-10T15:18:28.549Z,67.05
2023-01-10T15:19:28.533Z,67.7
2023-01-10T15:20:28.523Z,68.08
2023-01-10T15:21:28.523Z,67.46
2023-01-10T15:22:28.506Z,67.77
2023-01-10T15:23:28.506Z,67.46
2023-01-10T15:24:28.486Z,67.02
2023-01-10T15:25:28.472Z,67.57
2023-01-10T15:26:28.472Z,67.26
2023-01-10T15:27:28.455Z,67.36
2023-01-10T15:28:28.437Z,67.6
2023-01-10T15:29:28.430Z,67.9
2023-01-10T15:30:28.422Z,68.01
2023-01-10T15:31:28.414Z,68.21
2023-01-10T15:32:28.410Z,67.9
2023-01-10T15:33:28.391Z,67.9
2023-01-10T15:34:28.399Z,68.21
2023-01-10T15:35:28.372Z,67.8
2023-01-10T15:36:28.354Z,67.97
2023-01-10T15:37:28.346Z,67.9
2023-01-10T15:38:28.365Z,67.7
2023-01-10T15:39:28.358Z,68.01
2023-01-10T15:40:28.325Z,68.21
2023-01-10T15:41:28.302Z,68.41
2023-01-10T15:42:28.292Z,68.62
2023-01-10T15:43:28.296Z,68.18
2023-01-10T15:44:28.270Z,67.67
2023-01-10T15:45:28.260Z,67.57
2023-01-10T15:46:28.250Z,67.77
2023-01-10T15:47:28.239Z,67.77
2023-01-10T15:48:28.246Z,67.67
2023-01-10T15:49:28.219Z,67.77
2023-01-10T15:50:28.208Z,67.87
2023-01-10T15:51:28.224Z,68.18
2023-01-10T15:52:28.187Z,67.57